createdAt,value
2022-11-02T00:01:06.604Z,100449.28
2022-11-02T00:03:36.588Z,100441.53
2022-11-02T00:06:05.407Z,100440.47
2022-11-02T00:08:34.078Z,100441.84
2022-11-02T00:11:02.693Z,100440.13
2022-11-02T00:13:31.027Z,100449.06
2022-11-02T00:16:02.566Z,100444.72
2022-11-02T00:18:31.384Z,100449.56
2022-11-02T00:21:01.645Z,100450.91
2022-11-02T00:23:31.041Z,100452.50
2022-11-02T00:26:02.368Z,100443.81
2022-11-02T00:28:31.253Z,100448.56
2022-11-02T00:30:59.915Z,100446.19
2022-11-02T00:33:28.689Z,100441.00
2022-11-02T00:35:57.688Z,100444.09
2022-11-02T00:38:27.650Z,100447.78
2022-11-02T00:40:55.914Z,100443.50
2022-11-02T00:43:24.517Z,100447.91
2022-11-02T00:45:53.130Z,100446.94
2022-11-02T00:48:24.050Z,100443.22
2022-11-02T00:50:52.888Z,100438.53
2022-11-02T00:53:24.591Z,100435.38
2022-11-02T00:55:55.764Z,100436.44
2022-11-02T00:58:24.364Z,100438.06
2022-11-02T01:00:53.520Z,100434.63
2022-11-02T01:03:22.128Z,100439.66
2022-11-02T01:05:50.709Z,100430.38
2022-11-02T01:08:19.398Z,100444.00
2022-11-02T01:10:48.500Z,100436.31
2022-11-02T01:13:19.748Z,100435.34
2022-11-02T01:15:48.428Z,100438.00
2022-11-02T01:18:17.084Z,100435.47
2022-11-02T01:20:45.788Z,100429.78
2022-11-02T01:23:14.393Z,100436.88
2022-11-02T01:25:46.971Z,100432.75
2022-11-02T01:28:15.618Z,100435.47
2022-11-02T01:30:48.090Z,100441.44
2022-11-02T01:33:16.784Z,100438.53
2022-11-02T01:35:45.413Z,100442.13
2022-11-02T01:38:14.020Z,100437.88
2022-11-02T01:40:42.475Z,100429.78
2022-11-02T01:43:21.554Z,100432.00
2022-11-02T01:45:53.059Z,100435.59
2022-11-02T01:48:26.038Z,100435.50
2022-11-02T01:50:55.337Z,100433.47
2022-11-02T01:53:24.189Z,100438.91
2022-11-02T01:55:52.876Z,100426.19
2022-11-02T01:58:21.612Z,100429.16
2022-11-02T02:00:51.880Z,100432.72
2022-11-02T02:03:22.699Z,100430.84
2022-11-02T02:05:55.532Z,100437.53
2022-11-02T02:08:26.471Z,100433.03
2022-11-02T02:10:57.715Z,100425.53
2022-11-02T02:13:28.835Z,100429.75
2022-11-02T02:16:06.576Z,100431.03
2022-11-02T02:18:40.362Z,100429.22
2022-11-02T02:21:22.377Z,100426.34
2022-11-02T02:24:26.246Z,100426.63
2022-11-02T02:27:07.162Z,100434.22
2022-11-02T02:29:44.229Z,100427.91
2022-11-02T02:32:17.847Z,100430.91
2022-11-02T02:34:51.626Z,100433.75
2022-11-02T02:37:24.029Z,100438.09
2022-11-02T02:39:58.313Z,100433.31
2022-11-02T02:42:31.567Z,100437.91
2022-11-02T02:45:08.069Z,100447.22
2022-11-02T02:47:37.087Z,100441.88
2022-11-02T02:50:09.558Z,100439.47
2022-11-02T02:52:38.889Z,100435.75
2022-11-02T02:55:09.439Z,100445.56
2022-11-02T02:57:38.987Z,100442.31
2022-11-02T03:00:14.360Z,100431.00
2022-11-02T03:02:44.522Z,100438.81
2022-11-02T03:05:26.953Z,100441.47
2022-11-02T03:07:56.624Z,100448.59
2022-11-02T03:10:28.425Z,100442.16
2022-11-02T03:13:07.671Z,100448.88
2022-11-02T03:15:40.545Z,100445.00
2022-11-02T03:18:16.084Z,100438.81
2022-11-02T03:20:56.359Z,100443.06
2022-11-02T03:23:28.920Z,100435.41
2022-11-02T03:26:03.797Z,100449.63
2022-11-02T03:28:51.741Z,100440.75
2022-11-02T03:31:28.618Z,100449.25
2022-11-02T03:34:02.169Z,100442.88
2022-11-02T03:36:34.012Z,100448.44
2022-11-02T03:39:07.890Z,100454.78
2022-11-02T03:41:41.642Z,100457.88
2022-11-02T03:44:15.048Z,100455.81
2022-11-02T03:46:45.510Z,100462.38
2022-11-02T03:49:19.840Z,100465.59
2022-11-02T03:51:50.840Z,100455.53
2022-11-02T03:54:24.652Z,100457.53
2022-11-02T03:56:56.027Z,100464.34
2022-11-02T03:59:24.814Z,100466.75
2022-11-02T04:01:54.872Z,100466.66
2022-11-02T04:04:25.623Z,100467.16
2022-11-02T04:06:55.652Z,100468.88
2022-11-02T04:09:24.395Z,100470.38
2022-11-02T04:12:10.975Z,100469.53
2022-11-02T04:14:40.209Z,100473.50
2022-11-02T04:17:37.256Z,100466.19
2022-11-02T04:20:12.344Z,100475.34
2022-11-02T04:23:03.866Z,100479.97
2022-11-02T04:25:32.576Z,100474.63
2022-11-02T04:28:08.411Z,100476.47
2022-11-02T04:30:41.791Z,100477.41
2022-11-02T04:33:29.484Z,100478.38
2022-11-02T04:36:06.317Z,100476.97
2022-11-02T04:38:40.750Z,100481.63
2022-11-02T04:41:45.580Z,100482.50
2022-11-02T04:44:30.675Z,100476.97
2022-11-02T04:47:06.240Z,100475.03
2022-11-02T04:49:37.766Z,100476.25
2022-11-02T04:52:10.507Z,100470.50
2022-11-02T04:54:44.494Z,100477.50
2022-11-02T04:57:13.333Z,100470.19
2022-11-02T04:59:42.164Z,100469.63
2022-11-02T05:02:10.943Z,100478.84
2022-11-02T05:04:41.323Z,100480.16
2022-11-02T05:07:10.825Z,100478.63
2022-11-02T05:09:42.463Z,100481.06
2022-11-02T05:12:12.327Z,100488.56
2022-11-02T05:14:41.740Z,100494.34
2022-11-02T05:17:10.384Z,100495.06
2022-11-02T05:19:41.635Z,100496.22
2022-11-02T05:22:10.939Z,100498.41
2022-11-02T05:24:40.320Z,100498.13
2022-11-02T05:27:11.212Z,100499.59
2022-11-02T05:29:40.862Z,100508.53
2022-11-02T05:32:09.718Z,100499.25
2022-11-02T05:34:39.225Z,100506.34
2022-11-02T05:37:10.895Z,100504.38
2022-11-02T05:39:39.611Z,100512.66
2022-11-02T05:42:08.245Z,100515.47
2022-11-02T05:44:38.158Z,100512.59
2022-11-02T05:47:07.156Z,100522.72
2022-11-02T05:49:35.882Z,100521.63
2022-11-02T05:52:05.199Z,100523.38
2022-11-02T05:54:35.268Z,100525.53
2022-11-02T05:57:03.919Z,100530.50
2022-11-02T05:59:32.919Z,100527.81
2022-11-02T06:02:01.591Z,100526.44
2022-11-02T06:04:31.043Z,100534.19
2022-11-02T06:06:59.717Z,100535.78
2022-11-02T06:09:28.354Z,100533.94
2022-11-02T06:11:58.736Z,100535.53
2022-11-02T06:14:27.110Z,100545.91
2022-11-02T06:16:55.450Z,100545.00
2022-11-02T06:19:24.116Z,100549.06
2022-11-02T06:21:52.811Z,100550.50
2022-11-02T06:24:21.563Z,100550.91
2022-11-02T06:26:50.163Z,100551.94
2022-11-02T06:29:20.922Z,100562.81
2022-11-02T06:31:49.329Z,100557.91
2022-11-02T06:34:18.022Z,100557.75
2022-11-02T06:36:46.706Z,100565.78
2022-11-02T06:39:15.337Z,100564.91
2022-11-02T06:41:43.983Z,100563.63
2022-11-02T06:44:12.609Z,100561.03
2022-11-02T06:46:42.276Z,100568.00
2022-11-02T06:49:10.853Z,100571.56
2022-11-02T06:51:39.547Z,100567.78
2022-11-02T06:54:08.956Z,100566.31
2022-11-02T06:56:37.682Z,100565.47
2022-11-02T06:59:06.291Z,100557.69
2022-11-02T07:01:35.430Z,100566.19
2022-11-02T07:04:06.031Z,100560.28
2022-11-02T07:06:34.725Z,100570.47
2022-11-02T07:09:03.609Z,100567.78
2022-11-02T07:11:32.255Z,100565.88
2022-11-02T07:14:00.897Z,100577.03
2022-11-02T07:16:29.429Z,100575.72
2022-11-02T07:18:58.109Z,100579.38
2022-11-02T07:21:28.205Z,100580.69
2022-11-02T07:23:56.858Z,100575.66
2022-11-02T07:26:26.585Z,100575.25
2022-11-02T07:28:58.317Z,100575.72
2022-11-02T07:31:27.932Z,100574.94
2022-11-02T07:33:56.665Z,100572.44
2022-11-02T07:36:25.337Z,100556.91
2022-11-02T07:38:55.580Z,100562.22
2022-11-02T07:41:24.286Z,100565.50
2022-11-02T07:43:52.709Z,100564.28
2022-11-02T07:46:34.244Z,100563.13
2022-11-02T07:49:03.012Z,100565.59
2022-11-02T07:51:31.763Z,100562.66
2022-11-02T07:54:02.828Z,100566.53
2022-11-02T07:56:31.506Z,100559.28
2022-11-02T07:59:00.174Z,100564.50
2022-11-02T08:01:28.617Z,100568.22
2022-11-02T08:03:57.553Z,100568.28
2022-11-02T08:06:26.229Z,100569.16
2022-11-02T08:08:54.856Z,100568.44
2022-11-02T08:11:24.988Z,100571.00
2022-11-02T08:13:53.310Z,100569.19
2022-11-02T08:16:21.939Z,100569.94
2022-11-02T08:18:50.680Z,100570.63
2022-11-02T08:21:19.317Z,100574.38
2022-11-02T08:23:47.999Z,100572.41
2022-11-02T08:26:16.705Z,100569.53
2022-11-02T08:28:46.400Z,100571.06
2022-11-02T08:31:17.656Z,100568.44
2022-11-02T08:33:46.946Z,100570.06
2022-11-02T08:36:15.547Z,100559.44
2022-11-02T08:38:44.220Z,100565.97
2022-11-02T08:41:14.679Z,100563.31
2022-11-02T08:43:43.134Z,100565.41
2022-11-02T08:46:15.760Z,100562.56
2022-11-02T08:48:45.665Z,100568.38
2022-11-02T08:51:14.470Z,100570.91
2022-11-02T08:53:47.257Z,100572.78
2022-11-02T08:56:20.227Z,100575.72
2022-11-02T08:58:55.832Z,100571.41
2022-11-02T09:01:31.770Z,100575.47
2022-11-02T09:04:04.093Z,100574.22
2022-11-02T09:06:35.265Z,100576.50
2022-11-02T09:09:04.289Z,100569.03
2022-11-02T09:11:33.026Z,100565.16
2022-11-02T09:14:01.826Z,100557.66
2022-11-02T09:16:31.673Z,100563.06
2022-11-02T09:19:00.583Z,100560.69
2022-11-02T09:21:29.236Z,100565.31
2022-11-02T09:23:57.930Z,100552.19
2022-11-02T09:26:26.951Z,100557.69
2022-11-02T09:28:55.255Z,100554.69
2022-11-02T09:31:23.986Z,100567.13
2022-11-02T09:33:54.261Z,100571.72
2022-11-02T09:36:22.722Z,100560.47
2022-11-02T09:38:51.556Z,100559.59
2022-11-02T09:41:25.674Z,100561.28
2022-11-02T09:44:01.487Z,100577.31
2022-11-02T09:46:33.346Z,100568.50
2022-11-02T09:49:05.683Z,100568.81
2022-11-02T09:51:37.407Z,100572.81
2022-11-02T09:54:13.088Z,100572.44
2022-11-02T09:56:46.235Z,100572.78
2022-11-02T09:59:16.526Z,100575.56
2022-11-02T10:02:04.297Z,100569.91
2022-11-02T10:05:17.599Z,100574.19
2022-11-02T10:08:01.238Z,100577.19
2022-11-02T10:10:35.654Z,100576.34
2022-11-02T10:13:12.155Z,100577.13
2022-11-02T10:15:45.137Z,100571.00
2022-11-02T10:18:17.840Z,100579.25
2022-11-02T10:20:48.139Z,100573.53
2022-11-02T10:23:21.519Z,100567.03
2022-11-02T10:25:50.749Z,100561.25
2022-11-02T10:28:22.802Z,100567.56
2022-11-02T10:30:53.659Z,100568.63
2022-11-02T10:33:27.643Z,100563.06
2022-11-02T10:36:19.527Z,100565.16
2022-11-02T10:39:00.741Z,100569.59
2022-11-02T10:41:41.337Z,100568.63
2022-11-02T10:44:22.451Z,100579.63
2022-11-02T10:47:00.541Z,100568.03
2022-11-02T10:49:53.129Z,100568.81
2022-11-02T10:52:22.397Z,100575.22
2022-11-02T10:54:53.636Z,100571.19
2022-11-02T10:57:25.595Z,100572.09
2022-11-02T11:00:25.527Z,100574.75
2022-11-02T11:03:10.119Z,100571.16
2022-11-02T11:05:58.172Z,100575.66
2022-11-02T11:08:32.620Z,100572.72
2022-11-02T11:11:21.227Z,100576.84
2022-11-02T11:16:48.204Z,100569.63
2022-11-02T11:19:41.468Z,100567.88
2022-11-02T11:22:28.254Z,100573.31
2022-11-02T11:25:26.771Z,100570.44
2022-11-02T11:27:58.363Z,100568.25
2022-11-02T11:33:18.860Z,100557.59
2022-11-02T11:35:50.765Z,100560.69
2022-11-02T11:38:21.144Z,100556.16
2022-11-02T11:40:53.950Z,100548.50
2022-11-02T11:43:26.262Z,100558.81
2022-11-02T11:46:00.467Z,100561.94
2022-11-02T11:48:36.475Z,100561.66
2022-11-02T11:51:06.260Z,100565.06
2022-11-02T11:53:35.830Z,100565.84
2022-11-02T11:56:04.743Z,100570.03
2022-11-02T11:58:35.255Z,100562.81
2022-11-02T12:01:10.724Z,100552.03
2022-11-02T12:03:52.417Z,100549.50
2022-11-02T12:06:26.509Z,100548.19
2022-11-02T12:09:04.563Z,100538.84
2022-11-02T12:11:42.451Z,100544.16
2022-11-02T12:14:38.998Z,100540.19
2022-11-02T12:17:21.469Z,100545.84
2022-11-02T12:20:02.434Z,100544.59
2022-11-02T12:22:35.407Z,100552.19
2022-11-02T12:25:20.067Z,100545.94
2022-11-02T12:27:54.445Z,100533.59
2022-11-02T12:30:26.466Z,100540.97
2022-11-02T12:33:14.223Z,100537.75
2022-11-02T12:35:51.354Z,100534.69
2022-11-02T12:38:43.019Z,100528.03
2022-11-02T12:41:14.383Z,100524.78
2022-11-02T12:43:45.261Z,100518.72
2022-11-02T12:46:27.483Z,100512.44
2022-11-02T12:49:07.653Z,100528.28
2022-11-02T12:51:39.514Z,100520.00
2022-11-02T12:54:12.973Z,100517.66
2022-11-02T12:56:47.006Z,100514.91
2022-11-02T12:59:20.092Z,100513.56
2022-11-02T13:01:53.117Z,100515.88
2022-11-02T13:04:26.244Z,100515.38
2022-11-02T13:07:01.426Z,100519.03
2022-11-02T13:09:32.049Z,100519.84
2022-11-02T13:12:03.084Z,100519.19
2022-11-02T13:14:36.074Z,100515.63
2022-11-02T13:17:11.761Z,100519.16
2022-11-02T13:19:43.630Z,100522.06
2022-11-02T13:22:13.799Z,100519.91
2022-11-02T13:24:46.882Z,100520.25
2022-11-02T13:27:36.808Z,100526.63
2022-11-02T13:30:06.980Z,100533.13
2022-11-02T13:32:42.428Z,100529.00
2022-11-02T13:35:17.838Z,100530.25
2022-11-02T13:37:48.990Z,100528.22
2022-11-02T13:40:22.339Z,100538.19
2022-11-02T13:43:27.252Z,100548.31
2022-11-02T13:46:04.272Z,100546.38
2022-11-02T13:48:55.528Z,100549.13
2022-11-02T13:51:33.936Z,100552.53
2022-11-02T13:54:11.454Z,100549.50
2022-11-02T13:56:45.587Z,100550.59
2022-11-02T13:59:25.626Z,100561.75
2022-11-02T14:02:05.824Z,100549.31
2022-11-02T14:04:43.533Z,100545.00
2022-11-02T14:07:33.671Z,100546.25
2022-11-02T14:10:08.739Z,100554.13
2022-11-02T14:12:44.766Z,100549.28
2022-11-02T14:15:49.867Z,100544.56
2022-11-02T14:18:32.016Z,100550.78
2022-11-02T14:21:40.644Z,100547.06
2022-11-02T14:24:42.911Z,100545.88
2022-11-02T14:27:29.981Z,100544.31
2022-11-02T14:29:59.378Z,100549.97
2022-11-02T14:32:42.173Z,100545.53
2022-11-02T14:35:31.473Z,100547.53
2022-11-02T14:38:19.160Z,100544.19
2022-11-02T14:40:53.322Z,100545.06
2022-11-02T14:43:46.076Z,100543.25
2022-11-02T14:46:25.510Z,100545.84
2022-11-02T14:48:55.773Z,100547.84
2022-11-02T14:51:26.378Z,100542.28
2022-11-02T14:53:59.411Z,100547.28
2022-11-02T14:56:48.567Z,100553.38
2022-11-02T14:59:19.843Z,100551.03
2022-11-02T15:01:52.036Z,100556.25
2022-11-02T15:04:20.821Z,100552.63
2022-11-02T15:06:55.039Z,100550.25
2022-11-02T15:10:00.084Z,100551.19
2022-11-02T15:12:38.802Z,100553.03
2022-11-02T15:15:29.541Z,100556.44
2022-11-02T15:18:16.868Z,100557.75
2022-11-02T15:20:46.548Z,100560.53
2022-11-02T15:23:31.445Z,100565.59
2022-11-02T15:26:01.969Z,100561.22
2022-11-02T15:28:34.270Z,100565.59
2022-11-02T15:31:06.081Z,100567.94
2022-11-02T15:33:38.679Z,100566.22
2022-11-02T15:36:10.006Z,100571.81
2022-11-02T15:38:40.500Z,100579.38
2022-11-02T15:41:26.141Z,100577.16
2022-11-02T15:44:19.794Z,100578.41
2022-11-02T15:46:59.923Z,100584.16
2022-11-02T15:49:43.402Z,100583.00
2022-11-02T15:52:19.105Z,100592.34
2022-11-02T15:54:58.076Z,100598.75
2022-11-02T15:57:36.504Z,100599.81
2022-11-02T16:00:15.782Z,100593.94
2022-11-02T16:02:47.282Z,100600.16
2022-11-02T16:05:21.771Z,100609.91
2022-11-02T16:08:11.352Z,100606.22
2022-11-02T16:10:40.443Z,100606.63
2022-11-02T16:13:19.585Z,100607.06
2022-11-02T16:15:49.203Z,100602.69
2022-11-02T16:18:25.328Z,100612.72
2022-11-02T16:20:55.756Z,100603.69
2022-11-02T16:23:24.868Z,100598.59
2022-11-02T16:25:54.464Z,100607.34
2022-11-02T16:28:26.021Z,100599.78
2022-11-02T16:31:03.397Z,100603.16
2022-11-02T16:33:38.145Z,100603.97
2022-11-02T16:36:07.447Z,100604.31
2022-11-02T16:38:37.166Z,100614.53
2022-11-02T16:41:09.061Z,100617.88
2022-11-02T16:43:45.914Z,100612.84
2022-11-02T16:46:17.288Z,100615.16
2022-11-02T16:49:08.476Z,100618.22
2022-11-02T16:51:37.753Z,100623.78
2022-11-02T16:54:35.639Z,100617.53
2022-11-02T16:57:11.411Z,100618.84
2022-11-02T16:59:51.280Z,100625.59
2022-11-02T17:02:30.596Z,100623.72
2022-11-02T17:05:02.622Z,100621.75
2022-11-02T17:07:40.961Z,100624.75
2022-11-02T17:10:19.007Z,100633.66
2022-11-02T17:12:52.867Z,100627.50
2022-11-02T17:15:29.412Z,100636.09
2022-11-02T17:18:26.157Z,100639.09
2022-11-02T17:21:18.014Z,100643.63
2022-11-02T17:23:48.629Z,100637.56
2022-11-02T17:26:27.108Z,100640.13
2022-11-02T17:28:56.357Z,100633.97
2022-11-02T17:31:27.708Z,100634.16
2022-11-02T17:33:58.370Z,100636.16
2022-11-02T17:36:27.381Z,100634.47
2022-11-02T17:38:56.464Z,100639.81
2022-11-02T17:41:55.542Z,100634.66
2022-11-02T17:44:24.089Z,100630.97
2022-11-02T17:46:53.810Z,100627.72
2022-11-02T17:49:22.502Z,100632.94
2022-11-02T17:51:51.282Z,100637.47
2022-11-02T17:54:20.150Z,100640.13
2022-11-02T17:56:48.858Z,100635.44
2022-11-02T17:59:17.604Z,100623.09
2022-11-02T18:01:45.990Z,100624.78
2022-11-02T18:04:16.086Z,100624.59
2022-11-02T18:06:44.765Z,100625.41
2022-11-02T18:09:14.809Z,100621.09
2022-11-02T18:11:43.585Z,100633.41
2022-11-02T18:14:15.849Z,100623.94
2022-11-02T18:16:44.849Z,100626.75
2022-11-02T18:19:15.777Z,100621.34
2022-11-02T18:21:44.460Z,100628.03
2022-11-02T18:24:13.085Z,100624.84
2022-11-02T18:26:45.877Z,100628.44
2022-11-02T18:29:15.744Z,100629.56
2022-11-02T18:31:44.312Z,100631.88
2022-11-02T18:34:13.054Z,100630.19
2022-11-02T18:36:43.294Z,100639.00
2022-11-02T18:39:11.931Z,100633.66
2022-11-02T18:41:42.549Z,100632.44
2022-11-02T18:44:15.274Z,100624.44
2022-11-02T18:46:44.213Z,100635.63
2022-11-02T18:49:12.910Z,100635.63
2022-11-02T18:51:43.737Z,100625.81
2022-11-02T18:54:13.248Z,100626.16
2022-11-02T18:56:41.988Z,100617.16
2022-11-02T18:59:11.088Z,100624.84
2022-11-02T19:01:39.574Z,100631.81
2022-11-02T19:04:10.858Z,100626.16
2022-11-02T19:07:02.223Z,100631.00
2022-11-02T19:09:31.748Z,100634.28
2022-11-02T19:12:05.250Z,100633.09
2022-11-02T19:14:36.429Z,100630.97
2022-11-02T19:17:05.465Z,100638.16
2022-11-02T19:19:34.356Z,100633.81
2022-11-02T19:22:04.993Z,100644.81
2022-11-02T19:24:34.203Z,100641.28
2022-11-02T19:27:02.886Z,100639.31
2022-11-02T19:29:31.632Z,100644.13
2022-11-02T19:32:00.267Z,100650.09
2022-11-02T19:34:28.613Z,100653.16
2022-11-02T19:36:57.339Z,100657.84
2022-11-02T19:39:27.705Z,100667.19
2022-11-02T19:41:56.210Z,100662.19
2022-11-02T19:44:24.874Z,100665.50
2022-11-02T19:46:53.435Z,100659.50
2022-11-02T19:49:22.116Z,100663.19
2022-11-02T19:51:50.997Z,100664.31
2022-11-02T19:54:19.959Z,100670.50
2022-11-02T19:56:50.199Z,100669.50
2022-11-02T19:59:18.891Z,100670.50
2022-11-02T20:01:50.014Z,100679.50
2022-11-02T20:04:18.736Z,100673.50
2022-11-02T20:06:47.383Z,100678.84
2022-11-02T20:09:17.639Z,100684.16
2022-11-02T20:11:47.077Z,100690.31
2022-11-02T20:14:19.508Z,100685.00
2022-11-02T20:17:04.116Z,100684.00
2022-11-02T20:19:33.266Z,100689.16
2022-11-02T20:22:02.678Z,100694.66
2022-11-02T20:24:31.421Z,100692.19
2022-11-02T20:27:03.048Z,100689.00
2022-11-02T20:29:33.296Z,100700.50
2022-11-02T20:32:01.998Z,100698.03
2022-11-02T20:34:30.673Z,100691.84
2022-11-02T20:36:59.449Z,100698.69
2022-11-02T20:39:28.226Z,100704.69
2022-11-02T20:41:57.278Z,100690.00
2022-11-02T20:44:25.890Z,100693.28
2022-11-02T20:46:55.738Z,100697.00
2022-11-02T20:49:51.363Z,100699.16
2022-11-02T20:52:13.167Z,100698.28
2022-11-02T20:54:41.834Z,100699.50
2022-11-02T20:57:10.588Z,100701.16
2022-11-02T20:59:39.326Z,100704.34
2022-11-02T21:02:10.916Z,100696.81
2022-11-02T21:04:39.449Z,100704.81
2022-11-02T21:07:08.658Z,100705.47
2022-11-02T21:09:37.984Z,100700.59
2022-11-02T21:12:24.869Z,100700.41
2022-11-02T21:14:53.563Z,100689.53
2022-11-02T21:17:23.632Z,100694.69
2022-11-02T21:19:58.157Z,100698.69
2022-11-02T21:22:36.844Z,100705.97
2022-11-02T21:25:06.070Z,100703.03
2022-11-02T21:27:34.724Z,100708.03
2022-11-02T21:30:03.450Z,100717.19
2022-11-02T21:32:33.431Z,100710.19
2022-11-02T21:35:02.416Z,100704.84
2022-11-02T21:37:30.647Z,100705.84
2022-11-02T21:39:59.320Z,100704.84
2022-11-02T21:42:27.950Z,100707.00
2022-11-02T21:44:56.528Z,100696.50
2022-11-02T21:47:25.780Z,100698.34
2022-11-02T21:49:55.518Z,100703.50
2022-11-02T21:52:24.240Z,100699.34
2022-11-02T21:54:52.882Z,100708.66
2022-11-02T21:57:21.491Z,100722.78
2022-11-02T21:59:50.146Z,100722.28
2022-11-02T22:02:19.008Z,100723.78
2022-11-02T22:04:53.639Z,100732.28
2022-11-02T22:07:24.151Z,100730.25
2022-11-02T22:09:52.884Z,100720.13
2022-11-02T22:12:39.018Z,100728.28
2022-11-02T22:15:09.376Z,100729.00
2022-11-02T22:17:49.671Z,100720.75
2022-11-02T22:20:18.785Z,100727.50
2022-11-02T22:22:48.402Z,100727.63
2022-11-02T22:25:17.127Z,100728.19
2022-11-02T22:27:45.779Z,100718.94
2022-11-02T22:30:15.264Z,100715.28
2022-11-02T22:32:46.120Z,100722.81
2022-11-02T22:35:14.900Z,100717.31
2022-11-02T22:38:01.170Z,100716.84
2022-11-02T22:40:32.041Z,100733.00
2022-11-02T22:43:00.725Z,100737.44
2022-11-02T22:45:29.367Z,100734.28
2022-11-02T22:47:58.055Z,100736.53
2022-11-02T22:50:27.891Z,100732.38
2022-11-02T22:52:56.467Z,100740.16
2022-11-02T22:55:25.028Z,100743.94
2022-11-02T22:57:59.773Z,100743.94
2022-11-02T23:00:28.795Z,100747.72
2022-11-02T23:02:57.488Z,100748.50
2022-11-02T23:05:26.258Z,100754.97
2022-11-02T23:07:54.523Z,100752.25
2022-11-02T23:10:37.387Z,100760.06
2022-11-02T23:13:07.695Z,100755.09
2022-11-02T23:15:36.837Z,100761.81
2022-11-02T23:18:05.597Z,100769.81
2022-11-02T23:20:33.261Z,100762.34
2022-11-02T23:23:19.336Z,100763.63
2022-11-02T23:25:55.631Z,100767.84
2022-11-02T23:28:43.397Z,100767.41
2022-11-02T23:31:29.679Z,100772.22
2022-11-02T23:33:58.277Z,100766.75
2022-11-02T23:36:25.845Z,100763.47
2022-11-02T23:39:11.891Z,100767.63
2022-11-02T23:41:41.677Z,100762.50
2022-11-02T23:44:14.902Z,100767.38
2022-11-02T23:46:44.401Z,100760.03
2022-11-02T23:49:13.665Z,100762.06
2022-11-02T23:51:59.786Z,100758.69
2022-11-02T23:54:45.897Z,100756.38
2022-11-02T23:57:14.736Z,100761.69
2022-11-02T23:59:44.774Z,100763.72
